sensor_id;sensor_type;location;lat;lon;timestamp;temperature;humidity
54126;DHT22;40360;52.992;6.796;2023-04-07T00:00:17;7.50;99.90
54126;DHT22;40360;52.992;6.796;2023-04-07T00:02:43;7.50;99.90
54126;DHT22;40360;52.992;6.796;2023-04-07T00:05:09;7.40;99.90
54126;DHT22;40360;52.992;6.796;2023-04-07T00:07:34;7.70;99.90
54126;DHT22;40360;52.992;6.796;2023-04-07T00:10:00;7.50;99.90
54126;DHT22;40360;52.992;6.796;2023-04-07T00:12:25;7.40;99.90
54126;DHT22;40360;52.992;6.796;2023-04-07T00:14:51;7.50;99.90
54126;DHT22;40360;52.992;6.796;2023-04-07T00:17:17;7.50;99.90
54126;DHT22;40360;52.992;6.796;2023-04-07T00:19:42;7.50;99.90
54126;DHT22;40360;52.992;6.796;2023-04-07T00:22:08;7.50;99.90
54126;DHT22;40360;52.992;6.796;2023-04-07T00:24:34;7.40;99.90
54126;DHT22;40360;52.992;6.796;2023-04-07T00:27:00;7.40;99.90
54126;DHT22;40360;52.992;6.796;2023-04-07T00:29:26;7.40;99.90
54126;DHT22;40360;52.992;6.796;2023-04-07T00:31:52;7.40;99.90
54126;DHT22;40360;52.992;6.796;2023-04-07T00:34:17;7.40;99.90
54126;DHT22;40360;52.992;6.796;2023-04-07T00:36:43;7.40;99.90
54126;DHT22;40360;52.992;6.796;2023-04-07T00:39:08;7.40;99.90
54126;DHT22;40360;52.992;6.796;2023-04-07T00:41:34;7.40;99.90
54126;DHT22;40360;52.992;6.796;2023-04-07T00:44:00;7.40;99.90
54126;DHT22;40360;52.992;6.796;2023-04-07T00:46:26;7.40;99.90
54126;DHT22;40360;52.992;6.796;2023-04-07T00:48:52;7.40;99.90
54126;DHT22;40360;52.992;6.796;2023-04-07T00:51:20;7.40;99.90
54126;DHT22;40360;52.992;6.796;2023-04-07T00:53:47;7.40;99.90
54126;DHT22;40360;52.992;6.796;2023-04-07T00:56:13;7.40;99.90
54126;DHT22;40360;52.992;6.796;2023-04-07T00:58:39;7.40;99.90
54126;DHT22;40360;52.992;6.796;2023-04-07T01:03:35;7.40;99.90
54126;DHT22;40360;52.992;6.796;2023-04-07T01:06:05;7.30;99.90
54126;DHT22;40360;52.992;6.796;2023-04-07T01:08:49;7.50;99.90
54126;DHT22;40360;52.992;6.796;2023-04-07T01:11:24;7.30;99.90
54126;DHT22;40360;52.992;6.796;2023-04-07T01:13:52;7.30;99.90
54126;DHT22;40360;52.992;6.796;2023-04-07T01:16:30;7.30;99.90
54126;DHT22;40360;52.992;6.796;2023-04-07T01:19:35;7.30;99.90
54126;DHT22;40360;52.992;6.796;2023-04-07T01:22:14;7.30;99.90
54126;DHT22;40360;52.992;6.796;2023-04-07T01:30:12;7.30;99.90
54126;DHT22;40360;52.992;6.796;2023-04-07T01:32:42;7.30;99.90
54126;DHT22;40360;52.992;6.796;2023-04-07T01:35:11;7.30;99.90
54126;DHT22;40360;52.992;6.796;2023-04-07T01:37:38;7.30;99.90
54126;DHT22;40360;52.992;6.796;2023-04-07T01:40:06;7.30;99.90
54126;DHT22;40360;52.992;6.796;2023-04-07T01:42:33;7.30;99.90
54126;DHT22;40360;52.992;6.796;2023-04-07T01:45:00;7.30;99.90
54126;DHT22;40360;52.992;6.796;2023-04-07T01:47:27;7.30;99.90
54126;DHT22;40360;52.992;6.796;2023-04-07T01:49:57;7.30;99.90
54126;DHT22;40360;52.992;6.796;2023-04-07T01:52:27;7.30;99.90
54126;DHT22;40360;52.992;6.796;2023-04-07T01:54:53;7.30;99.90
54126;DHT22;40360;52.992;6.796;2023-04-07T01:57:19;7.30;99.90
54126;DHT22;40360;52.992;6.796;2023-04-07T01:59:45;7.30;99.90
54126;DHT22;40360;52.992;6.796;2023-04-07T02:02:11;7.30;99.90
54126;DHT22;40360;52.992;6.796;2023-04-07T02:04:48;7.30;99.90
54126;DHT22;40360;52.992;6.796;2023-04-07T02:07:42;7.30;99.90
54126;DHT22;40360;52.992;6.796;2023-04-07T02:10:12;7.30;99.90
54126;DHT22;40360;52.992;6.796;2023-04-07T02:12:41;7.30;99.90
54126;DHT22;40360;52.992;6.796;2023-04-07T02:15:09;7.30;99.90
54126;DHT22;40360;52.992;6.796;2023-04-07T02:17:38;7.30;99.90
54126;DHT22;40360;52.992;6.796;2023-04-07T02:20:09;7.30;99.90
54126;DHT22;40360;52.992;6.796;2023-04-07T02:22:37;7.30;99.90
54126;DHT22;40360;52.992;6.796;2023-04-07T02:25:23;7.30;99.90
54126;DHT22;40360;52.992;6.796;2023-04-07T02:27:50;7.30;99.90
54126;DHT22;40360;52.992;6.796;2023-04-07T02:30:16;7.30;99.90
54126;DHT22;40360;52.992;6.796;2023-04-07T02:32:41;7.30;99.90
54126;DHT22;40360;52.992;6.796;2023-04-07T02:35:07;7.30;99.90
54126;DHT22;40360;52.992;6.796;2023-04-07T02:37:32;7.30;99.90
54126;DHT22;40360;52.992;6.796;2023-04-07T02:39:58;7.30;99.90
54126;DHT22;40360;52.992;6.796;2023-04-07T02:42:24;7.30;99.90
54126;DHT22;40360;52.992;6.796;2023-04-07T02:44:49;7.30;99.90
54126;DHT22;40360;52.992;6.796;2023-04-07T02:47:15;7.30;99.90
54126;DHT22;40360;52.992;6.796;2023-04-07T02:49:41;7.30;99.90
54126;DHT22;40360;52.992;6.796;2023-04-07T02:52:07;7.30;99.90
54126;DHT22;40360;52.992;6.796;2023-04-07T02:54:32;7.30;99.90
54126;DHT22;40360;52.992;6.796;2023-04-07T02:56:58;7.30;99.90
54126;DHT22;40360;52.992;6.796;2023-04-07T02:59:23;7.30;99.90
54126;DHT22;40360;52.992;6.796;2023-04-07T03:01:49;7.30;99.90
54126;DHT22;40360;52.992;6.796;2023-04-07T03:04:15;7.30;99.90
54126;DHT22;40360;52.992;6.796;2023-04-07T03:06:41;7.30;99.90
54126;DHT22;40360;52.992;6.796;2023-04-07T03:09:07;7.30;99.90
54126;DHT22;40360;52.992;6.796;2023-04-07T03:11:32;7.30;99.90
54126;DHT22;40360;52.992;6.796;2023-04-07T03:13:58;7.30;99.90
54126;DHT22;40360;52.992;6.796;2023-04-07T03:16:24;7.30;99.90
54126;DHT22;40360;52.992;6.796;2023-04-07T03:18:49;7.30;99.90
54126;DHT22;40360;52.992;6.796;2023-04-07T03:21:15;7.30;99.90
54126;DHT22;40360;52.992;6.796;2023-04-07T03:23:41;7.30;99.90
54126;DHT22;40360;52.992;6.796;2023-04-07T03:26:06;7.30;99.90
54126;DHT22;40360;52.992;6.796;2023-04-07T03:28:32;7.30;99.90
54126;DHT22;40360;52.992;6.796;2023-04-07T03:30:58;7.30;99.90
54126;DHT22;40360;52.992;6.796;2023-04-07T03:33:23;7.30;99.90
54126;DHT22;40360;52.992;6.796;2023-04-07T03:35:49;7.30;99.90
54126;DHT22;40360;52.992;6.796;2023-04-07T03:38:14;7.30;99.90
54126;DHT22;40360;52.992;6.796;2023-04-07T03:40:40;7.30;99.90
54126;DHT22;40360;52.992;6.796;2023-04-07T03:43:05;7.30;99.90
54126;DHT22;40360;52.992;6.796;2023-04-07T03:45:37;7.30;99.90
54126;DHT22;40360;52.992;6.796;2023-04-07T03:48:02;7.30;99.90
54126;DHT22;40360;52.992;6.796;2023-04-07T03:50:28;7.20;99.90
54126;DHT22;40360;52.992;6.796;2023-04-07T03:52:54;7.20;99.90
54126;DHT22;40360;52.992;6.796;2023-04-07T03:55:19;7.30;99.90
54126;DHT22;40360;52.992;6.796;2023-04-07T03:57:45;7.30;99.90
54126;DHT22;40360;52.992;6.796;2023-04-07T04:00:12;7.30;99.90
54126;DHT22;40360;52.992;6.796;2023-04-07T04:02:37;7.30;99.90
54126;DHT22;40360;52.992;6.796;2023-04-07T04:05:03;7.20;99.90
54126;DHT22;40360;52.992;6.796;2023-04-07T04:07:29;7.20;99.90
54126;DHT22;40360;52.992;6.796;2023-04-07T04:09:55;7.20;99.90
54126;DHT22;40360;52.992;6.796;2023-04-07T04:12:21;7.20;99.90
54126;DHT22;40360;52.992;6.796;2023-04-07T04:14:46;7.20;99.90
54126;DHT22;40360;52.992;6.796;2023-04-07T04:17:12;7.20;99.90
54126;DHT22;40360;52.992;6.796;2023-04-07T04:19:37;7.20;99.90
54126;DHT22;40360;52.992;6.796;2023-04-07T04:22:03;7.20;99.90
54126;DHT22;40360;52.992;6.796;2023-04-07T04:24:29;7.20;99.90
54126;DHT22;40360;52.992;6.796;2023-04-07T04:26:57;7.20;99.90
54126;DHT22;40360;52.992;6.796;2023-04-07T04:29:23;7.20;99.90
54126;DHT22;40360;52.992;6.796;2023-04-07T04:31:48;7.20;99.90
54126;DHT22;40360;52.992;6.796;2023-04-07T04:34:14;7.20;99.90
54126;DHT22;40360;52.992;6.796;2023-04-07T04:36:40;7.20;99.90
54126;DHT22;40360;52.992;6.796;2023-04-07T04:39:08;7.20;99.90
54126;DHT22;40360;52.992;6.796;2023-04-07T04:41:34;7.20;99.90
54126;DHT22;40360;52.992;6.796;2023-04-07T04:44:00;7.20;99.90
54126;DHT22;40360;52.992;6.796;2023-04-07T04:46:26;7.20;99.90
54126;DHT22;40360;52.992;6.796;2023-04-07T04:48:51;7.20;99.90
54126;DHT22;40360;52.992;6.796;2023-04-07T04:51:19;7.20;99.90
54126;DHT22;40360;52.992;6.796;2023-04-07T04:53:44;7.20;99.90
54126;DHT22;40360;52.992;6.796;2023-04-07T04:56:10;7.20;99.90
54126;DHT22;40360;52.992;6.796;2023-04-07T04:58:36;7.20;99.90
54126;DHT22;40360;52.992;6.796;2023-04-07T05:01:04;7.20;99.90
54126;DHT22;40360;52.992;6.796;2023-04-07T05:03:30;7.20;99.90
54126;DHT22;40360;52.992;6.796;2023-04-07T05:05:56;7.20;99.90
54126;DHT22;40360;52.992;6.796;2023-04-07T05:08:21;7.20;99.90
54126;DHT22;40360;52.992;6.796;2023-04-07T05:10:47;7.20;99.90
54126;DHT22;40360;52.992;6.796;2023-04-07T05:13:13;7.20;99.90
54126;DHT22;40360;52.992;6.796;2023-04-07T05:15:40;7.20;99.90
54126;DHT22;40360;52.992;6.796;2023-04-07T05:18:06;7.20;99.90
54126;DHT22;40360;52.992;6.796;2023-04-07T05:20:31;7.20;99.90
54126;DHT22;40360;52.992;6.796;2023-04-07T05:22:57;7.20;99.90
54126;DHT22;40360;52.992;6.796;2023-04-07T05:25:23;7.20;99.90
54126;DHT22;40360;52.992;6.796;2023-04-07T05:27:49;7.30;99.90
54126;DHT22;40360;52.992;6.796;2023-04-07T05:30:15;7.20;99.90
54126;DHT22;40360;52.992;6.796;2023-04-07T05:32:44;7.20;99.90
54126;DHT22;40360;52.992;6.796;2023-04-07T05:35:10;7.20;99.90
54126;DHT22;40360;52.992;6.796;2023-04-07T05:37:36;7.20;99.90
54126;DHT22;40360;52.992;6.796;2023-04-07T05:40:01;7.20;99.90
54126;DHT22;40360;52.992;6.796;2023-04-07T05:42:27;7.20;99.90
54126;DHT22;40360;52.992;6.796;2023-04-07T06:00:55;7.20;99.90
54126;DHT22;40360;52.992;6.796;2023-04-07T06:03:21;7.20;99.90
54126;DHT22;40360;52.992;6.796;2023-04-07T06:05:46;7.20;99.90
54126;DHT22;40360;52.992;6.796;2023-04-07T06:08:12;7.20;99.90
54126;DHT22;40360;52.992;6.796;2023-04-07T06:10:38;7.20;99.90
54126;DHT22;40360;52.992;6.796;2023-04-07T06:13:05;7.20;99.90
54126;DHT22;40360;52.992;6.796;2023-04-07T06:15:31;7.20;99.90
54126;DHT22;40360;52.992;6.796;2023-04-07T06:17:57;7.30;99.90
54126;DHT22;40360;52.992;6.796;2023-04-07T06:20:23;7.30;99.90
54126;DHT22;40360;52.992;6.796;2023-04-07T06:22:49;7.30;99.90
54126;DHT22;40360;52.992;6.796;2023-04-07T06:25:14;7.30;99.90
54126;DHT22;40360;52.992;6.796;2023-04-07T06:27:40;7.30;99.90
54126;DHT22;40360;52.992;6.796;2023-04-07T06:30:06;7.30;99.90
54126;DHT22;40360;52.992;6.796;2023-04-07T06:32:32;7.40;99.90
54126;DHT22;40360;52.992;6.796;2023-04-07T06:34:58;7.30;99.90
54126;DHT22;40360;52.992;6.796;2023-04-07T06:37:24;7.40;99.90
54126;DHT22;40360;52.992;6.796;2023-04-07T06:39:50;7.40;99.90
54126;DHT22;40360;52.992;6.796;2023-04-07T06:42:16;7.40;99.90
54126;DHT22;40360;52.992;6.796;2023-04-07T06:44:41;7.50;99.90
54126;DHT22;40360;52.992;6.796;2023-04-07T06:47:08;7.50;99.90
54126;DHT22;40360;52.992;6.796;2023-04-07T06:49:34;7.60;99.90
54126;DHT22;40360;52.992;6.796;2023-04-07T06:52:00;7.60;99.90
54126;DHT22;40360;52.992;6.796;2023-04-07T06:54:25;7.60;99.90
54126;DHT22;40360;52.992;6.796;2023-04-07T06:56:51;7.70;99.90
54126;DHT22;40360;52.992;6.796;2023-04-07T06:59:17;7.70;99.90
54126;DHT22;40360;52.992;6.796;2023-04-07T07:01:42;7.70;99.90
54126;DHT22;40360;52.992;6.796;2023-04-07T07:04:08;7.70;99.90
54126;DHT22;40360;52.992;6.796;2023-04-07T07:06:34;7.80;99.90
54126;DHT22;40360;52.992;6.796;2023-04-07T07:08:59;7.80;99.90
54126;DHT22;40360;52.992;6.796;2023-04-07T07:11:27;7.90;99.90
54126;DHT22;40360;52.992;6.796;2023-04-07T07:13:53;7.90;99.90
54126;DHT22;40360;52.992;6.796;2023-04-07T07:16:18;8.00;99.90
54126;DHT22;40360;52.992;6.796;2023-04-07T07:18:44;8.00;99.90
54126;DHT22;40360;52.992;6.796;2023-04-07T07:21:10;8.00;99.90
54126;DHT22;40360;52.992;6.796;2023-04-07T07:23:35;8.10;99.90
54126;DHT22;40360;52.992;6.796;2023-04-07T07:26:02;8.10;99.90
54126;DHT22;40360;52.992;6.796;2023-04-07T07:28:29;8.10;99.90
54126;DHT22;40360;52.992;6.796;2023-04-07T07:30:54;8.20;99.90
54126;DHT22;40360;52.992;6.796;2023-04-07T07:33:20;8.20;99.90
54126;DHT22;40360;52.992;6.796;2023-04-07T07:35:47;8.20;99.90
54126;DHT22;40360;52.992;6.796;2023-04-07T07:38:13;8.20;99.90
54126;DHT22;40360;52.992;6.796;2023-04-07T07:40:38;8.30;99.90
54126;DHT22;40360;52.992;6.796;2023-04-07T07:43:04;8.40;99.90
54126;DHT22;40360;52.992;6.796;2023-04-07T07:45:30;8.40;99.90
54126;DHT22;40360;52.992;6.796;2023-04-07T07:47:56;8.40;99.90
54126;DHT22;40360;52.992;6.796;2023-04-07T07:50:22;8.40;99.90
54126;DHT22;40360;52.992;6.796;2023-04-07T07:52:47;8.40;99.90
54126;DHT22;40360;52.992;6.796;2023-04-07T07:55:13;8.40;99.90
54126;DHT22;40360;52.992;6.796;2023-04-07T07:57:38;8.40;99.90
54126;DHT22;40360;52.992;6.796;2023-04-07T08:00:05;8.50;99.90
54126;DHT22;40360;52.992;6.796;2023-04-07T08:02:30;8.50;99.90
54126;DHT22;40360;52.992;6.796;2023-04-07T08:04:58;8.50;99.90
54126;DHT22;40360;52.992;6.796;2023-04-07T08:07:27;8.50;99.90
54126;DHT22;40360;52.992;6.796;2023-04-07T08:09:53;8.60;99.90
54126;DHT22;40360;52.992;6.796;2023-04-07T08:12:19;8.70;99.90
54126;DHT22;40360;52.992;6.796;2023-04-07T08:14:44;8.80;99.90
54126;DHT22;40360;52.992;6.796;2023-04-07T08:17:10;8.90;99.90
54126;DHT22;40360;52.992;6.796;2023-04-07T08:19:37;8.90;99.90
54126;DHT22;40360;52.992;6.796;2023-04-07T08:22:02;9.00;99.90
54126;DHT22;40360;52.992;6.796;2023-04-07T08:24:28;9.10;99.90
54126;DHT22;40360;52.992;6.796;2023-04-07T08:26:54;9.00;99.90
54126;DHT22;40360;52.992;6.796;2023-04-07T08:29:20;9.10;99.90
54126;DHT22;40360;52.992;6.796;2023-04-07T08:31:45;9.00;99.90
54126;DHT22;40360;52.992;6.796;2023-04-07T08:34:11;9.00;99.90
54126;DHT22;40360;52.992;6.796;2023-04-07T08:36:38;9.00;99.90
54126;DHT22;40360;52.992;6.796;2023-04-07T08:39:03;8.90;99.90
54126;DHT22;40360;52.992;6.796;2023-04-07T08:41:35;9.00;99.90
54126;DHT22;40360;52.992;6.796;2023-04-07T08:44:02;9.00;99.90
54126;DHT22;40360;52.992;6.796;2023-04-07T08:46:28;9.00;99.90
54126;DHT22;40360;52.992;6.796;2023-04-07T08:48:55;9.10;99.90
54126;DHT22;40360;52.992;6.796;2023-04-07T08:51:30;9.10;99.90
54126;DHT22;40360;52.992;6.796;2023-04-07T08:54:19;9.10;99.90
54126;DHT22;40360;52.992;6.796;2023-04-07T08:56:46;9.10;99.90
54126;DHT22;40360;52.992;6.796;2023-04-07T08:59:14;9.20;99.90
54126;DHT22;40360;52.992;6.796;2023-04-07T09:01:40;9.10;99.90
54126;DHT22;40360;52.992;6.796;2023-04-07T09:04:07;9.20;99.90
54126;DHT22;40360;52.992;6.796;2023-04-07T09:06:34;9.10;99.90
54126;DHT22;40360;52.992;6.796;2023-04-07T09:09:03;9.10;99.90
54126;DHT22;40360;52.992;6.796;2023-04-07T09:11:35;9.10;99.90
54126;DHT22;40360;52.992;6.796;2023-04-07T09:14:00;9.10;99.90
54126;DHT22;40360;52.992;6.796;2023-04-07T09:16:28;9.20;99.90
54126;DHT22;40360;52.992;6.796;2023-04-07T09:18:55;9.10;99.90
54126;DHT22;40360;52.992;6.796;2023-04-07T09:21:21;9.20;99.90
54126;DHT22;40360;52.992;6.796;2023-04-07T09:23:47;9.20;99.90
54126;DHT22;40360;52.992;6.796;2023-04-07T09:26:22;9.20;99.90
54126;DHT22;40360;52.992;6.796;2023-04-07T09:28:53;9.20;99.90
54126;DHT22;40360;52.992;6.796;2023-04-07T09:31:20;9.20;99.90
54126;DHT22;40360;52.992;6.796;2023-04-07T09:33:49;9.20;99.90
54126;DHT22;40360;52.992;6.796;2023-04-07T09:36:15;9.30;99.90
54126;DHT22;40360;52.992;6.796;2023-04-07T09:38:42;9.20;99.90
54126;DHT22;40360;52.992;6.796;2023-04-07T09:43:43;9.30;99.90
54126;DHT22;40360;52.992;6.796;2023-04-07T09:46:16;9.30;99.90
54126;DHT22;40360;52.992;6.796;2023-04-07T09:48:44;9.40;99.90
54126;DHT22;40360;52.992;6.796;2023-04-07T09:51:12;9.50;99.90
54126;DHT22;40360;52.992;6.796;2023-04-07T09:53:45;9.60;99.90
54126;DHT22;40360;52.992;6.796;2023-04-07T09:56:13;9.70;99.90
54126;DHT22;40360;52.992;6.796;2023-04-07T09:58:43;9.90;99.90
54126;DHT22;40360;52.992;6.796;2023-04-07T10:01:10;10.50;99.90
54126;DHT22;40360;52.992;6.796;2023-04-07T10:03:36;10.20;99.90
54126;DHT22;40360;52.992;6.796;2023-04-07T10:06:03;10.20;99.90
54126;DHT22;40360;52.992;6.796;2023-04-07T10:08:33;10.30;99.90
54126;DHT22;40360;52.992;6.796;2023-04-07T10:11:00;10.40;99.90
54126;DHT22;40360;52.992;6.796;2023-04-07T10:13:31;10.40;99.90
54126;DHT22;40360;52.992;6.796;2023-04-07T10:15:58;10.50;99.90
54126;DHT22;40360;52.992;6.796;2023-04-07T10:18:31;10.50;99.90
54126;DHT22;40360;52.992;6.796;2023-04-07T10:21:00;10.50;99.90
54126;DHT22;40360;52.992;6.796;2023-04-07T10:23:51;10.70;99.90
54126;DHT22;40360;52.992;6.796;2023-04-07T10:26:20;10.60;99.90
54126;DHT22;40360;52.992;6.796;2023-04-07T10:28:57;10.70;99.90
54126;DHT22;40360;52.992;6.796;2023-04-07T10:31:24;10.70;99.90
54126;DHT22;40360;52.992;6.796;2023-04-07T10:33:51;10.80;99.90
54126;DHT22;40360;52.992;6.796;2023-04-07T10:36:19;10.70;99.90
54126;DHT22;40360;52.992;6.796;2023-04-07T10:41:39;10.70;99.90
54126;DHT22;40360;52.992;6.796;2023-04-07T10:44:06;10.70;99.90
54126;DHT22;40360;52.992;6.796;2023-04-07T10:49:11;10.70;99.90
54126;DHT22;40360;52.992;6.796;2023-04-07T10:51:38;10.70;99.90
54126;DHT22;40360;52.992;6.796;2023-04-07T10:54:22;10.80;99.90
54126;DHT22;40360;52.992;6.796;2023-04-07T10:57:12;10.90;99.90
54126;DHT22;40360;52.992;6.796;2023-04-07T10:59:39;10.90;99.90
54126;DHT22;40360;52.992;6.796;2023-04-07T11:04:38;10.90;99.90
54126;DHT22;40360;52.992;6.796;2023-04-07T11:07:04;10.90;99.90
54126;DHT22;40360;52.992;6.796;2023-04-07T11:09:30;10.90;99.90
54126;DHT22;40360;52.992;6.796;2023-04-07T11:11:55;10.80;99.90
54126;DHT22;40360;52.992;6.796;2023-04-07T11:14:30;10.80;99.90
54126;DHT22;40360;52.992;6.796;2023-04-07T11:16:57;10.80;99.90
54126;DHT22;40360;52.992;6.796;2023-04-07T11:19:22;10.90;99.90
54126;DHT22;40360;52.992;6.796;2023-04-07T11:21:48;11.00;99.90
54126;DHT22;40360;52.992;6.796;2023-04-07T11:24:35;11.10;99.90
54126;DHT22;40360;52.992;6.796;2023-04-07T11:27:04;11.20;99.90
54126;DHT22;40360;52.992;6.796;2023-04-07T11:29:32;11.40;99.90
54126;DHT22;40360;52.992;6.796;2023-04-07T11:31:59;11.50;99.90
54126;DHT22;40360;52.992;6.796;2023-04-07T11:34:29;11.60;99.90
54126;DHT22;40360;52.992;6.796;2023-04-07T11:36:56;11.60;99.90
54126;DHT22;40360;52.992;6.796;2023-04-07T11:39:25;11.70;99.90
54126;DHT22;40360;52.992;6.796;2023-04-07T11:41:57;11.70;99.90
54126;DHT22;40360;52.992;6.796;2023-04-07T11:44:23;11.80;99.90
54126;DHT22;40360;52.992;6.796;2023-04-07T11:46:56;11.80;99.90
54126;DHT22;40360;52.992;6.796;2023-04-07T11:49:23;11.90;99.90
54126;DHT22;40360;52.992;6.796;2023-04-07T11:52:03;12.00;99.90
54126;DHT22;40360;52.992;6.796;2023-04-07T11:54:46;12.00;99.90
54126;DHT22;40360;52.992;6.796;2023-04-07T11:57:13;12.00;99.90
54126;DHT22;40360;52.992;6.796;2023-04-07T11:59:40;12.10;99.90
54126;DHT22;40360;52.992;6.796;2023-04-07T12:02:06;12.00;99.90
54126;DHT22;40360;52.992;6.796;2023-04-07T12:04:35;12.00;99.90
54126;DHT22;40360;52.992;6.796;2023-04-07T12:07:10;12.00;99.90
54126;DHT22;40360;52.992;6.796;2023-04-07T12:09:36;12.10;99.90
54126;DHT22;40360;52.992;6.796;2023-04-07T12:12:03;12.20;99.90
54126;DHT22;40360;52.992;6.796;2023-04-07T12:14:33;12.20;99.90
54126;DHT22;40360;52.992;6.796;2023-04-07T12:16:59;12.30;99.90
54126;DHT22;40360;52.992;6.796;2023-04-07T12:19:28;12.30;99.90
54126;DHT22;40360;52.992;6.796;2023-04-07T12:21:54;12.30;99.90
54126;DHT22;40360;52.992;6.796;2023-04-07T12:24:20;12.30;99.90
54126;DHT22;40360;52.992;6.796;2023-04-07T12:26:46;12.30;99.90
54126;DHT22;40360;52.992;6.796;2023-04-07T12:29:12;12.40;99.90
54126;DHT22;40360;52.992;6.796;2023-04-07T12:31:38;12.50;99.90
54126;DHT22;40360;52.992;6.796;2023-04-07T12:34:04;12.70;99.90
54126;DHT22;40360;52.992;6.796;2023-04-07T12:36:30;12.70;99.90
54126;DHT22;40360;52.992;6.796;2023-04-07T12:38:56;12.80;99.90
54126;DHT22;40360;52.992;6.796;2023-04-07T12:41:23;12.80;99.90
54126;DHT22;40360;52.992;6.796;2023-04-07T12:43:50;12.80;99.90
54126;DHT22;40360;52.992;6.796;2023-04-07T12:46:16;12.80;99.90
54126;DHT22;40360;52.992;6.796;2023-04-07T12:48:42;12.80;99.90
54126;DHT22;40360;52.992;6.796;2023-04-07T12:51:08;12.80;99.90
54126;DHT22;40360;52.992;6.796;2023-04-07T12:53:33;12.90;99.90
54126;DHT22;40360;52.992;6.796;2023-04-07T12:55:59;12.90;99.90
54126;DHT22;40360;52.992;6.796;2023-04-07T12:58:25;13.00;99.90
54126;DHT22;40360;52.992;6.796;2023-04-07T13:00:52;13.00;99.90
54126;DHT22;40360;52.992;6.796;2023-04-07T13:03:18;13.10;99.90
54126;DHT22;40360;52.992;6.796;2023-04-07T13:05:43;13.20;99.90
54126;DHT22;40360;52.992;6.796;2023-04-07T13:08:09;13.30;99.90
54126;DHT22;40360;52.992;6.796;2023-04-07T13:10:35;13.40;99.90
54126;DHT22;40360;52.992;6.796;2023-04-07T13:13:00;13.50;99.90
54126;DHT22;40360;52.992;6.796;2023-04-07T13:15:26;13.50;99.90
54126;DHT22;40360;52.992;6.796;2023-04-07T13:17:53;13.50;99.90
54126;DHT22;40360;52.992;6.796;2023-04-07T13:20:20;13.40;99.90
54126;DHT22;40360;52.992;6.796;2023-04-07T13:22:45;13.40;99.90
54126;DHT22;40360;52.992;6.796;2023-04-07T13:25:12;13.50;99.90
54126;DHT22;40360;52.992;6.796;2023-04-07T13:27:37;13.40;99.90
54126;DHT22;40360;52.992;6.796;2023-04-07T13:30:03;13.60;99.90
54126;DHT22;40360;52.992;6.796;2023-04-07T13:32:29;13.60;99.90
54126;DHT22;40360;52.992;6.796;2023-04-07T13:34:54;13.60;99.90
54126;DHT22;40360;52.992;6.796;2023-04-07T13:37:20;13.70;99.90
54126;DHT22;40360;52.992;6.796;2023-04-07T13:39:46;13.70;99.90
54126;DHT22;40360;52.992;6.796;2023-04-07T13:42:12;13.70;99.90
54126;DHT22;40360;52.992;6.796;2023-04-07T13:44:41;13.80;99.90
54126;DHT22;40360;52.992;6.796;2023-04-07T13:47:09;13.80;99.90
54126;DHT22;40360;52.992;6.796;2023-04-07T13:49:35;13.80;99.90
54126;DHT22;40360;52.992;6.796;2023-04-07T13:52:01;13.80;99.90
54126;DHT22;40360;52.992;6.796;2023-04-07T13:54:26;14.00;99.90
54126;DHT22;40360;52.992;6.796;2023-04-07T13:56:52;14.10;99.90
54126;DHT22;40360;52.992;6.796;2023-04-07T13:59:18;14.20;99.90
54126;DHT22;40360;52.992;6.796;2023-04-07T14:01:43;14.40;99.90
54126;DHT22;40360;52.992;6.796;2023-04-07T14:04:09;14.30;99.90
54126;DHT22;40360;52.992;6.796;2023-04-07T14:06:35;14.40;99.90
54126;DHT22;40360;52.992;6.796;2023-04-07T14:09:02;14.40;99.90
54126;DHT22;40360;52.992;6.796;2023-04-07T14:11:28;14.30;99.90
54126;DHT22;40360;52.992;6.796;2023-04-07T14:13:54;14.20;99.90
54126;DHT22;40360;52.992;6.796;2023-04-07T14:16:21;14.20;99.90
54126;DHT22;40360;52.992;6.796;2023-04-07T14:18:47;14.20;99.90
54126;DHT22;40360;52.992;6.796;2023-04-07T14:21:13;14.20;99.90
54126;DHT22;40360;52.992;6.796;2023-04-07T14:23:40;14.30;99.90
54126;DHT22;40360;52.992;6.796;2023-04-07T14:26:09;14.60;99.90
54126;DHT22;40360;52.992;6.796;2023-04-07T14:28:35;15.20;99.90
54126;DHT22;40360;52.992;6.796;2023-04-07T14:31:01;15.70;99.90
54126;DHT22;40360;52.992;6.796;2023-04-07T14:33:27;15.90;99.90
54126;DHT22;40360;52.992;6.796;2023-04-07T14:35:53;15.80;99.90
54126;DHT22;40360;52.992;6.796;2023-04-07T14:38:18;15.90;99.90
54126;DHT22;40360;52.992;6.796;2023-04-07T14:40:48;15.90;99.90
54126;DHT22;40360;52.992;6.796;2023-04-07T14:43:14;15.90;99.90
54126;DHT22;40360;52.992;6.796;2023-04-07T14:45:40;15.90;99.90
54126;DHT22;40360;52.992;6.796;2023-04-07T14:48:05;15.80;99.90
54126;DHT22;40360;52.992;6.796;2023-04-07T14:50:32;15.70;99.90
54126;DHT22;40360;52.992;6.796;2023-04-07T14:52:58;15.70;99.90
54126;DHT22;40360;52.992;6.796;2023-04-07T14:55:24;15.60;99.90
54126;DHT22;40360;52.992;6.796;2023-04-07T14:57:49;15.50;99.90
54126;DHT22;40360;52.992;6.796;2023-04-07T15:00:15;15.40;99.90
54126;DHT22;40360;52.992;6.796;2023-04-07T15:02:41;15.20;99.90
54126;DHT22;40360;52.992;6.796;2023-04-07T15:05:07;15.10;99.90
54126;DHT22;40360;52.992;6.796;2023-04-07T15:07:33;15.10;99.90
54126;DHT22;40360;52.992;6.796;2023-04-07T15:09:58;15.10;99.90
54126;DHT22;40360;52.992;6.796;2023-04-07T15:12:25;15.20;99.90
54126;DHT22;40360;52.992;6.796;2023-04-07T15:14:52;15.20;99.90
54126;DHT22;40360;52.992;6.796;2023-04-07T15:17:18;15.30;99.90
54126;DHT22;40360;52.992;6.796;2023-04-07T15:19:44;15.20;99.90
54126;DHT22;40360;52.992;6.796;2023-04-07T15:22:10;15.10;99.90
54126;DHT22;40360;52.992;6.796;2023-04-07T15:24:35;15.00;99.90
54126;DHT22;40360;52.992;6.796;2023-04-07T15:27:01;14.90;99.90
54126;DHT22;40360;52.992;6.796;2023-04-07T15:29:26;14.80;99.90
54126;DHT22;40360;52.992;6.796;2023-04-07T15:31:52;14.70;99.90
54126;DHT22;40360;52.992;6.796;2023-04-07T15:34:17;14.60;99.90
54126;DHT22;40360;52.992;6.796;2023-04-07T15:36:43;14.50;99.90
54126;DHT22;40360;52.992;6.796;2023-04-07T15:39:09;14.40;99.90
54126;DHT22;40360;52.992;6.796;2023-04-07T15:41:34;14.40;99.90
54126;DHT22;40360;52.992;6.796;2023-04-07T15:44:03;14.30;99.90
54126;DHT22;40360;52.992;6.796;2023-04-07T15:46:29;14.30;99.90
54126;DHT22;40360;52.992;6.796;2023-04-07T15:48:56;14.30;99.90
54126;DHT22;40360;52.992;6.796;2023-04-07T15:51:22;14.30;99.90
54126;DHT22;40360;52.992;6.796;2023-04-07T15:53:48;14.30;99.90
54126;DHT22;40360;52.992;6.796;2023-04-07T15:56:13;14.20;99.90
54126;DHT22;40360;52.992;6.796;2023-04-07T15:58:39;14.10;99.90
54126;DHT22;40360;52.992;6.796;2023-04-07T16:01:04;14.00;99.90
54126;DHT22;40360;52.992;6.796;2023-04-07T16:03:30;13.90;99.90
54126;DHT22;40360;52.992;6.796;2023-04-07T16:05:57;13.90;99.90
54126;DHT22;40360;52.992;6.796;2023-04-07T16:08:22;13.80;99.90
54126;DHT22;40360;52.992;6.796;2023-04-07T16:10:48;13.80;99.90
54126;DHT22;40360;52.992;6.796;2023-04-07T16:13:14;13.60;99.90